sensor_id;sensor_type;location;lat;lon;timestamp;P1;P2;P0
72485;PMS5003;60509;47.308;-122.428;2022-10-31T00:02:04;5000;5000;
72485;PMS5003;60509;47.308;-122.428;2022-10-31T00:04:29;5000;5000;
72485;PMS5003;60509;47.308;-122.428;2022-10-31T00:06:54;4992;4992;
72485;PMS5003;60509;47.308;-122.428;2022-10-31T00:09:20;5000;5000;
72485;PMS5003;60509;47.308;-122.428;2022-10-31T00:11:45;4992;4992;
72485;PMS5003;60509;47.308;-122.428;2022-10-31T00:14:10;4952;4952;
72485;PMS5003;60509;47.308;-122.428;2022-10-31T00:16:35;5000;5000;
72485;PMS5003;60509;47.308;-122.428;2022-10-31T00:19:01;4992;4992;
72485;PMS5003;60509;47.308;-122.428;2022-10-31T00:21:26;4992;4992;
72485;PMS5003;60509;47.308;-122.428;2022-10-31T00:23:51;5000;5000;
72485;PMS5003;60509;47.308;-122.428;2022-10-31T00:26:16;4984;4984;
72485;PMS5003;60509;47.308;-122.428;2022-10-31T00:28:42;4984;4984;
72485;PMS5003;60509;47.308;-122.428;2022-10-31T00:31:08;4992;4992;
72485;PMS5003;60509;47.308;-122.428;2022-10-31T00:33:33;4984;4984;
72485;PMS5003;60509;47.308;-122.428;2022-10-31T00:35:57;5000;5000;
72485;PMS5003;60509;47.308;-122.428;2022-10-31T00:38:23;4992;4992;
72485;PMS5003;60509;47.308;-122.428;2022-10-31T00:40:48;4992;4992;
72485;PMS5003;60509;47.308;-122.428;2022-10-31T00:43:13;4992;4992;
72485;PMS5003;60509;47.308;-122.428;2022-10-31T00:45:39;4992;4992;
72485;PMS5003;60509;47.308;-122.428;2022-10-31T00:48:04;4992;4992;
72485;PMS5003;60509;47.308;-122.428;2022-10-31T00:50:29;4992;4992;
72485;PMS5003;60509;47.308;-122.428;2022-10-31T00:52:54;4992;4992;
72485;PMS5003;60509;47.308;-122.428;2022-10-31T00:55:20;4992;4992;
72485;PMS5003;60509;47.308;-122.428;2022-10-31T00:57:46;4992;4992;
72485;PMS5003;60509;47.308;-122.428;2022-10-31T01:00:11;4992;4992;
72485;PMS5003;60509;47.308;-122.428;2022-10-31T01:02:35;4992;4992;
72485;PMS5003;60509;47.308;-122.428;2022-10-31T01:05:01;4984;4984;
72485;PMS5003;60509;47.308;-122.428;2022-10-31T01:07:26;4992;4992;
72485;PMS5003;60509;47.308;-122.428;2022-10-31T01:09:51;4984;4984;
72485;PMS5003;60509;47.308;-122.428;2022-10-31T01:12:17;5000;5000;
72485;PMS5003;60509;47.308;-122.428;2022-10-31T01:14:42;5000;5000;
72485;PMS5003;60509;47.308;-122.428;2022-10-31T01:17:07;4984;4984;
72485;PMS5003;60509;47.308;-122.428;2022-10-31T01:19:33;4952;4952;
72485;PMS5003;60509;47.308;-122.428;2022-10-31T01:21:58;4992;4992;
72485;PMS5003;60509;47.308;-122.428;2022-10-31T01:24:23;4992;4992;
72485;PMS5003;60509;47.308;-122.428;2022-10-31T01:26:48;4992;4992;
72485;PMS5003;60509;47.308;-122.428;2022-10-31T01:29:13;4984;4984;
72485;PMS5003;60509;47.308;-122.428;2022-10-31T01:31:39;4976;4976;
72485;PMS5003;60509;47.308;-122.428;2022-10-31T01:34:04;4976;4976;
72485;PMS5003;60509;47.308;-122.428;2022-10-31T01:36:30;4984;4984;
72485;PMS5003;60509;47.308;-122.428;2022-10-31T01:38:56;4984;4984;
72485;PMS5003;60509;47.308;-122.428;2022-10-31T01:41:20;4992;4992;
72485;PMS5003;60509;47.308;-122.428;2022-10-31T01:43:46;4992;4992;
72485;PMS5003;60509;47.308;-122.428;2022-10-31T01:46:10;4984;4984;
72485;PMS5003;60509;47.308;-122.428;2022-10-31T01:48:36;5000;5000;
72485;PMS5003;60509;47.308;-122.428;2022-10-31T01:51:01;5000;5000;
72485;PMS5003;60509;47.308;-122.428;2022-10-31T01:53:26;4984;4984;
72485;PMS5003;60509;47.308;-122.428;2022-10-31T01:55:51;4968;4968;
72485;PMS5003;60509;47.308;-122.428;2022-10-31T01:58:18;4984;4984;
72485;PMS5003;60509;47.308;-122.428;2022-10-31T02:00:43;4992;4992;
72485;PMS5003;60509;47.308;-122.428;2022-10-31T02:03:07;5000;5000;
72485;PMS5003;60509;47.308;-122.428;2022-10-31T02:05:32;4992;4992;
72485;PMS5003;60509;47.308;-122.428;2022-10-31T02:07:59;4992;4992;
72485;PMS5003;60509;47.308;-122.428;2022-10-31T02:10:23;5000;5000;
72485;PMS5003;60509;47.308;-122.428;2022-10-31T02:12:48;4992;4992;
72485;PMS5003;60509;47.308;-122.428;2022-10-31T02:15:14;4992;4992;
72485;PMS5003;60509;47.308;-122.428;2022-10-31T02:17:39;4976;4976;
72485;PMS5003;60509;47.308;-122.428;2022-10-31T02:20:07;4984;4984;
72485;PMS5003;60509;47.308;-122.428;2022-10-31T02:22:32;4976;4976;
72485;PMS5003;60509;47.308;-122.428;2022-10-31T02:25:00;4976;4976;
72485;PMS5003;60509;47.308;-122.428;2022-10-31T02:27:24;4992;4992;
72485;PMS5003;60509;47.308;-122.428;2022-10-31T02:30:18;4984;4984;
72485;PMS5003;60509;47.308;-122.428;2022-10-31T02:32:12;4992;4992;
72485;PMS5003;60509;47.308;-122.428;2022-10-31T02:34:36;4936;4936;
72485;PMS5003;60509;47.308;-122.428;2022-10-31T02:37:03;4952;4952;
72485;PMS5003;60509;47.308;-122.428;2022-10-31T02:39:28;4968;4968;
72485;PMS5003;60509;47.308;-122.428;2022-10-31T02:41:54;4976;4976;
72485;PMS5003;60509;47.308;-122.428;2022-10-31T02:44:19;4984;4984;
72485;PMS5003;60509;47.308;-122.428;2022-10-31T02:46:44;4992;4992;
72485;PMS5003;60509;47.308;-122.428;2022-10-31T02:49:08;4984;4984;
72485;PMS5003;60509;47.308;-122.428;2022-10-31T02:51:32;4984;4984;
72485;PMS5003;60509;47.308;-122.428;2022-10-31T02:53:58;4976;4976;
72485;PMS5003;60509;47.308;-122.428;2022-10-31T02:56:23;4984;4984;
72485;PMS5003;60509;47.308;-122.428;2022-10-31T02:58:49;4992;4992;
72485;PMS5003;60509;47.308;-122.428;2022-10-31T03:01:19;5000;5000;
72485;PMS5003;60509;47.308;-122.428;2022-10-31T03:03:34;5000;5000;
72485;PMS5003;60509;47.308;-122.428;2022-10-31T03:06:00;4960;4960;
72485;PMS5003;60509;47.308;-122.428;2022-10-31T03:08:27;4968;4968;
72485;PMS5003;60509;47.308;-122.428;2022-10-31T03:10:52;4984;4984;
72485;PMS5003;60509;47.308;-122.428;2022-10-31T03:13:18;4992;4992;
72485;PMS5003;60509;47.308;-122.428;2022-10-31T03:15:43;5000;5000;
72485;PMS5003;60509;47.308;-122.428;2022-10-31T03:18:07;5000;5000;
72485;PMS5003;60509;47.308;-122.428;2022-10-31T03:20:35;4944;4944;
72485;PMS5003;60509;47.308;-122.428;2022-10-31T03:22:57;4984;4984;
72485;PMS5003;60509;47.308;-122.428;2022-10-31T03:25:22;4968;4968;
72485;PMS5003;60509;47.308;-122.428;2022-10-31T03:27:47;4984;4984;
72485;PMS5003;60509;47.308;-122.428;2022-10-31T03:30:13;4976;4976;
72485;PMS5003;60509;47.308;-122.428;2022-10-31T03:32:39;4952;4952;
72485;PMS5003;60509;47.308;-122.428;2022-10-31T03:35:03;4952;4952;
72485;PMS5003;60509;47.308;-122.428;2022-10-31T03:37:29;4960;4960;
72485;PMS5003;60509;47.308;-122.428;2022-10-31T03:39:54;4944;4944;
72485;PMS5003;60509;47.308;-122.428;2022-10-31T03:42:21;4952;4952;
72485;PMS5003;60509;47.308;-122.428;2022-10-31T03:44:45;4952;4952;
72485;PMS5003;60509;47.308;-122.428;2022-10-31T03:47:09;4960;4960;
72485;PMS5003;60509;47.308;-122.428;2022-10-31T03:49:35;4944;4944;
72485;PMS5003;60509;47.308;-122.428;2022-10-31T03:52:02;4936;4936;
72485;PMS5003;60509;47.308;-122.428;2022-10-31T03:54:26;4992;4992;
72485;PMS5003;60509;47.308;-122.428;2022-10-31T03:56:51;4944;4944;
72485;PMS5003;60509;47.308;-122.428;2022-10-31T03:59:17;4952;4952;
72485;PMS5003;60509;47.308;-122.428;2022-10-31T04:01:43;4968;4968;
72485;PMS5003;60509;47.308;-122.428;2022-10-31T04:04:06;4968;4968;
72485;PMS5003;60509;47.308;-122.428;2022-10-31T04:06:32;4976;4976;
72485;PMS5003;60509;47.308;-122.428;2022-10-31T04:08:58;4976;4976;
72485;PMS5003;60509;47.308;-122.428;2022-10-31T04:11:23;4968;4968;
72485;PMS5003;60509;47.308;-122.428;2022-10-31T04:13:47;4976;4976;
72485;PMS5003;60509;47.308;-122.428;2022-10-31T04:16:13;4968;4968;
72485;PMS5003;60509;47.308;-122.428;2022-10-31T04:18:38;4960;4960;
72485;PMS5003;60509;47.308;-122.428;2022-10-31T04:21:04;4976;4976;
72485;PMS5003;60509;47.308;-122.428;2022-10-31T04:23:28;4968;4968;
72485;PMS5003;60509;47.308;-122.428;2022-10-31T04:25:54;4968;4968;
72485;PMS5003;60509;47.308;-122.428;2022-10-31T04:28:19;4976;4976;
72485;PMS5003;60509;47.308;-122.428;2022-10-31T04:30:44;4976;4976;
72485;PMS5003;60509;47.308;-122.428;2022-10-31T04:33:10;4992;4992;
72485;PMS5003;60509;47.308;-122.428;2022-10-31T04:35:35;4944;4944;
72485;PMS5003;60509;47.308;-122.428;2022-10-31T04:38:00;4976;4976;
72485;PMS5003;60509;47.308;-122.428;2022-10-31T04:40:25;4992;4992;
72485;PMS5003;60509;47.308;-122.428;2022-10-31T04:42:51;4992;4992;
72485;PMS5003;60509;47.308;-122.428;2022-10-31T04:45:16;4952;4952;
72485;PMS5003;60509;47.308;-122.428;2022-10-31T04:47:41;5000;5000;
72485;PMS5003;60509;47.308;-122.428;2022-10-31T04:50:07;4992;4992;
72485;PMS5003;60509;47.308;-122.428;2022-10-31T04:52:32;4984;4984;
72485;PMS5003;60509;47.308;-122.428;2022-10-31T04:54:57;4992;4992;
72485;PMS5003;60509;47.308;-122.428;2022-10-31T04:57:22;4992;4992;
72485;PMS5003;60509;47.308;-122.428;2022-10-31T04:59:47;4984;4984;
72485;PMS5003;60509;47.308;-122.428;2022-10-31T05:02:13;4984;4984;
72485;PMS5003;60509;47.308;-122.428;2022-10-31T05:04:38;4976;4976;
72485;PMS5003;60509;47.308;-122.428;2022-10-31T05:07:03;4968;4968;
72485;PMS5003;60509;47.308;-122.428;2022-10-31T05:09:28;4968;4968;
72485;PMS5003;60509;47.308;-122.428;2022-10-31T05:11:54;4968;4968;
72485;PMS5003;60509;47.308;-122.428;2022-10-31T05:14:19;4968;4968;
72485;PMS5003;60509;47.308;-122.428;2022-10-31T05:16:44;4976;4976;
72485;PMS5003;60509;47.308;-122.428;2022-10-31T05:19:09;4976;4976;
72485;PMS5003;60509;47.308;-122.428;2022-10-31T05:21:35;4952;4952;
72485;PMS5003;60509;47.308;-122.428;2022-10-31T05:24:00;4976;4976;
72485;PMS5003;60509;47.308;-122.428;2022-10-31T05:26:25;4976;4976;
72485;PMS5003;60509;47.308;-122.428;2022-10-31T05:28:51;4960;4960;
72485;PMS5003;60509;47.308;-122.428;2022-10-31T05:31:16;4960;4960;
72485;PMS5003;60509;47.308;-122.428;2022-10-31T05:33:41;4976;4976;
72485;PMS5003;60509;47.308;-122.428;2022-10-31T05:36:07;4960;4960;
72485;PMS5003;60509;47.308;-122.428;2022-10-31T05:38:32;4905;4905;
72485;PMS5003;60509;47.308;-122.428;2022-10-31T05:40:57;4968;4968;
72485;PMS5003;60509;47.308;-122.428;2022-10-31T05:43:22;4968;4968;
72485;PMS5003;60509;47.308;-122.428;2022-10-31T05:45:51;4976;4976;
72485;PMS5003;60509;47.308;-122.428;2022-10-31T05:48:13;4976;4976;
72485;PMS5003;60509;47.308;-122.428;2022-10-31T05:50:38;4960;4960;
72485;PMS5003;60509;47.308;-122.428;2022-10-31T05:53:04;4960;4960;
72485;PMS5003;60509;47.308;-122.428;2022-10-31T05:55:29;4960;4960;
72485;PMS5003;60509;47.308;-122.428;2022-10-31T05:57:54;4968;4968;
72485;PMS5003;60509;47.308;-122.428;2022-10-31T06:00:20;4960;4960;
72485;PMS5003;60509;47.308;-122.428;2022-10-31T06:02:45;4952;4952;
72485;PMS5003;60509;47.308;-122.428;2022-10-31T06:05:10;4960;4960;
72485;PMS5003;60509;47.308;-122.428;2022-10-31T06:07:35;4976;4976;
72485;PMS5003;60509;47.308;-122.428;2022-10-31T06:10:02;4984;4984;
72485;PMS5003;60509;47.308;-122.428;2022-10-31T06:12:26;4968;4968;
72485;PMS5003;60509;47.308;-122.428;2022-10-31T06:14:51;4960;4960;
72485;PMS5003;60509;47.308;-122.428;2022-10-31T06:17:16;4960;4960;
72485;PMS5003;60509;47.308;-122.428;2022-10-31T06:19:42;4952;4952;
72485;PMS5003;60509;47.308;-122.428;2022-10-31T06:22:07;4960;4960;
72485;PMS5003;60509;47.308;-122.428;2022-10-31T06:24:32;4952;4952;
72485;PMS5003;60509;47.308;-122.428;2022-10-31T06:26:58;4960;4960;
72485;PMS5003;60509;47.308;-122.428;2022-10-31T06:29:23;4960;4960;
72485;PMS5003;60509;47.308;-122.428;2022-10-31T06:31:51;4952;4952;
72485;PMS5003;60509;47.308;-122.428;2022-10-31T06:34:14;4936;4936;
72485;PMS5003;60509;47.308;-122.428;2022-10-31T06:36:39;4944;4944;
72485;PMS5003;60509;47.308;-122.428;2022-10-31T06:39:04;4936;4936;
72485;PMS5003;60509;47.308;-122.428;2022-10-31T06:41:30;4944;4944;
72485;PMS5003;60509;47.308;-122.428;2022-10-31T06:43:55;4944;4944;
72485;PMS5003;60509;47.308;-122.428;2022-10-31T06:46:20;4944;4944;
72485;PMS5003;60509;47.308;-122.428;2022-10-31T06:48:45;4944;4944;
72485;PMS5003;60509;47.308;-122.428;2022-10-31T06:51:11;4944;4944;
72485;PMS5003;60509;47.308;-122.428;2022-10-31T06:53:36;4913;4913;
72485;PMS5003;60509;47.308;-122.428;2022-10-31T06:56:01;4944;4944;
72485;PMS5003;60509;47.308;-122.428;2022-10-31T06:58:27;4936;4936;
72485;PMS5003;60509;47.308;-122.428;2022-10-31T07:00:52;4944;4944;
72485;PMS5003;60509;47.308;-122.428;2022-10-31T07:03:17;4905;4905;
72485;PMS5003;60509;47.308;-122.428;2022-10-31T07:05:42;4913;4913;
72485;PMS5003;60509;47.308;-122.428;2022-10-31T07:08:09;4913;4913;
72485;PMS5003;60509;47.308;-122.428;2022-10-31T07:10:34;4860;4860;
72485;PMS5003;60509;47.308;-122.428;2022-10-31T07:12:59;4921;4921;
72485;PMS5003;60509;47.308;-122.428;2022-10-31T07:15:24;4898;4898;
72485;PMS5003;60509;47.308;-122.428;2022-10-31T07:17:49;4913;4913;
72485;PMS5003;60509;47.308;-122.428;2022-10-31T07:20:14;4929;4929;
72485;PMS5003;60509;47.308;-122.428;2022-10-31T07:22:39;4913;4913;
72485;PMS5003;60509;47.308;-122.428;2022-10-31T07:25:05;4929;4929;
72485;PMS5003;60509;47.308;-122.428;2022-10-31T07:27:35;4929;4929;
72485;PMS5003;60509;47.308;-122.428;2022-10-31T07:29:55;4936;4936;
72485;PMS5003;60509;47.308;-122.428;2022-10-31T07:32:20;4944;4944;
72485;PMS5003;60509;47.308;-122.428;2022-10-31T07:34:46;4929;4929;
72485;PMS5003;60509;47.308;-122.428;2022-10-31T07:37:11;4929;4929;
72485;PMS5003;60509;47.308;-122.428;2022-10-31T07:39:36;4905;4905;
72485;PMS5003;60509;47.308;-122.428;2022-10-31T07:42:02;4921;4921;
72485;PMS5003;60509;47.308;-122.428;2022-10-31T07:44:27;4913;4913;
72485;PMS5003;60509;47.308;-122.428;2022-10-31T07:46:53;4921;4921;
72485;PMS5003;60509;47.308;-122.428;2022-10-31T07:49:18;4905;4905;
72485;PMS5003;60509;47.308;-122.428;2022-10-31T07:51:43;4929;4929;
72485;PMS5003;60509;47.308;-122.428;2022-10-31T07:54:09;4921;4921;
72485;PMS5003;60509;47.308;-122.428;2022-10-31T07:56:34;4890;4890;
72485;PMS5003;60509;47.308;-122.428;2022-10-31T07:58:59;4921;4921;
72485;PMS5003;60509;47.308;-122.428;2022-10-31T08:01:25;4913;4913;
72485;PMS5003;60509;47.308;-122.428;2022-10-31T08:03:50;4936;4936;
72485;PMS5003;60509;47.308;-122.428;2022-10-31T08:06:15;4929;4929;
72485;PMS5003;60509;47.308;-122.428;2022-10-31T08:08:41;4921;4921;
72485;PMS5003;60509;47.308;-122.428;2022-10-31T08:11:06;4898;4898;
72485;PMS5003;60509;47.308;-122.428;2022-10-31T08:13:31;4921;4921;
72485;PMS5003;60509;47.308;-122.428;2022-10-31T08:15:57;4921;4921;
72485;PMS5003;60509;47.308;-122.428;2022-10-31T08:18:22;4921;4921;
72485;PMS5003;60509;47.308;-122.428;2022-10-31T08:20:47;4913;4913;
72485;PMS5003;60509;47.308;-122.428;2022-10-31T08:23:12;4936;4936;
72485;PMS5003;60509;47.308;-122.428;2022-10-31T08:25:38;4929;4929;
72485;PMS5003;60509;47.308;-122.428;2022-10-31T08:28:04;4929;4929;
72485;PMS5003;60509;47.308;-122.428;2022-10-31T08:30:29;4913;4913;
72485;PMS5003;60509;47.308;-122.428;2022-10-31T08:32:58;4905;4905;
72485;PMS5003;60509;47.308;-122.428;2022-10-31T08:35:19;4913;4913;
72485;PMS5003;60509;47.308;-122.428;2022-10-31T08:37:44;4921;4921;
72485;PMS5003;60509;47.308;-122.428;2022-10-31T08:40:10;4913;4913;
72485;PMS5003;60509;47.308;-122.428;2022-10-31T08:42:35;4882;4882;
72485;PMS5003;60509;47.308;-122.428;2022-10-31T08:45:01;4929;4929;
72485;PMS5003;60509;47.308;-122.428;2022-10-31T08:47:26;4913;4913;
72485;PMS5003;60509;47.308;-122.428;2022-10-31T08:49:51;4921;4921;
72485;PMS5003;60509;47.308;-122.428;2022-10-31T08:52:17;4905;4905;
72485;PMS5003;60509;47.308;-122.428;2022-10-31T08:54:42;4921;4921;
72485;PMS5003;60509;47.308;-122.428;2022-10-31T08:57:07;4921;4921;
72485;PMS5003;60509;47.308;-122.428;2022-10-31T08:59:33;4867;4867;
72485;PMS5003;60509;47.308;-122.428;2022-10-31T09:01:58;4921;4921;
72485;PMS5003;60509;47.308;-122.428;2022-10-31T09:04:24;4913;4913;
72485;PMS5003;60509;47.308;-122.428;2022-10-31T09:06:49;4913;4913;
72485;PMS5003;60509;47.308;-122.428;2022-10-31T09:09:14;4913;4913;
72485;PMS5003;60509;47.308;-122.428;2022-10-31T09:11:40;4921;4921;
72485;PMS5003;60509;47.308;-122.428;2022-10-31T09:14:05;4905;4905;
72485;PMS5003;60509;47.308;-122.428;2022-10-31T09:16:30;4913;4913;
72485;PMS5003;60509;47.308;-122.428;2022-10-31T09:18:56;4905;4905;
72485;PMS5003;60509;47.308;-122.428;2022-10-31T09:21:21;4905;4905;
72485;PMS5003;60509;47.308;-122.428;2022-10-31T09:23:46;4905;4905;
72485;PMS5003;60509;47.308;-122.428;2022-10-31T09:26:12;4898;4898;
72485;PMS5003;60509;47.308;-122.428;2022-10-31T09:28:37;4890;4890;
72485;PMS5003;60509;47.308;-122.428;2022-10-31T09:31:02;4890;4890;
72485;PMS5003;60509;47.308;-122.428;2022-10-31T09:33:28;4905;4905;
72485;PMS5003;60509;47.308;-122.428;2022-10-31T09:35:53;4898;4898;
72485;PMS5003;60509;47.308;-122.428;2022-10-31T09:38:19;4898;4898;
72485;PMS5003;60509;47.308;-122.428;2022-10-31T09:40:44;4890;4890;
72485;PMS5003;60509;47.308;-122.428;2022-10-31T09:43:13;4898;4898;
72485;PMS5003;60509;47.308;-122.428;2022-10-31T09:45:36;4867;4867;
72485;PMS5003;60509;47.308;-122.428;2022-10-31T09:48:04;4860;4860;
72485;PMS5003;60509;47.308;-122.428;2022-10-31T09:50:26;4844;4844;
72485;PMS5003;60509;47.308;-122.428;2022-10-31T09:52:54;4837;4837;
72485;PMS5003;60509;47.308;-122.428;2022-10-31T09:55:17;4844;4844;
72485;PMS5003;60509;47.308;-122.428;2022-10-31T09:57:41;4844;4844;
72485;PMS5003;60509;47.308;-122.428;2022-10-31T10:00:10;4860;4860;
72485;PMS5003;60509;47.308;-122.428;2022-10-31T10:02:33;4867;4867;
72485;PMS5003;60509;47.308;-122.428;2022-10-31T10:04:58;4898;4898;
72485;PMS5003;60509;47.308;-122.428;2022-10-31T10:07:24;4882;4882;
72485;PMS5003;60509;47.308;-122.428;2022-10-31T10:09:48;4913;4913;
72485;PMS5003;60509;47.308;-122.428;2022-10-31T10:12:15;4905;4905;
72485;PMS5003;60509;47.308;-122.428;2022-10-31T10:14:42;4898;4898;
72485;PMS5003;60509;47.308;-122.428;2022-10-31T10:17:08;4921;4921;
72485;PMS5003;60509;47.308;-122.428;2022-10-31T10:19:33;4921;4921;
72485;PMS5003;60509;47.308;-122.428;2022-10-31T10:21:56;4913;4913;
72485;PMS5003;60509;47.308;-122.428;2022-10-31T10:24:27;4921;4921;
72485;PMS5003;60509;47.308;-122.428;2022-10-31T10:26:47;4921;4921;
72485;PMS5003;60509;47.308;-122.428;2022-10-31T10:29:17;4921;4921;
72485;PMS5003;60509;47.308;-122.428;2022-10-31T10:31:37;4890;4890;
72485;PMS5003;60509;47.308;-122.428;2022-10-31T10:34:02;4921;4921;
72485;PMS5003;60509;47.308;-122.428;2022-10-31T10:36:27;4913;4913;
72485;PMS5003;60509;47.308;-122.428;2022-10-31T10:38:53;4905;4905;
72485;PMS5003;60509;47.308;-122.428;2022-10-31T10:41:23;4913;4913;
72485;PMS5003;60509;47.308;-122.428;2022-10-31T10:43:43;4913;4913;
72485;PMS5003;60509;47.308;-122.428;2022-10-31T10:46:15;4913;4913;
72485;PMS5003;60509;47.308;-122.428;2022-10-31T10:48:36;4860;4860;
72485;PMS5003;60509;47.308;-122.428;2022-10-31T10:50:58;4921;4921;
72485;PMS5003;60509;47.308;-122.428;2022-10-31T10:53:30;4944;4944;
72485;PMS5003;60509;47.308;-122.428;2022-10-31T10:55:50;4936;4936;
72485;PMS5003;60509;47.308;-122.428;2022-10-31T10:58:14;4936;4936;
72485;PMS5003;60509;47.308;-122.428;2022-10-31T11:00:40;4944;4944;
72485;PMS5003;60509;47.308;-122.428;2022-10-31T11:03:04;4936;4936;
72485;PMS5003;60509;47.308;-122.428;2022-10-31T11:05:35;4952;4952;
72485;PMS5003;60509;47.308;-122.428;2022-10-31T11:07:55;4944;4944;
72485;PMS5003;60509;47.308;-122.428;2022-10-31T11:10:20;4936;4936;
72485;PMS5003;60509;47.308;-122.428;2022-10-31T11:12:46;4944;4944;
72485;PMS5003;60509;47.308;-122.428;2022-10-31T11:15:17;4960;4960;
72485;PMS5003;60509;47.308;-122.428;2022-10-31T11:17:37;4944;4944;
72485;PMS5003;60509;47.308;-122.428;2022-10-31T11:20:03;4968;4968;
72485;PMS5003;60509;47.308;-122.428;2022-10-31T11:22:26;4976;4976;
72485;PMS5003;60509;47.308;-122.428;2022-10-31T11:24:51;4960;4960;
72485;PMS5003;60509;47.308;-122.428;2022-10-31T11:27:20;4960;4960;
72485;PMS5003;60509;47.308;-122.428;2022-10-31T11:29:42;4968;4968;
72485;PMS5003;60509;47.308;-122.428;2022-10-31T11:32:13;4968;4968;
72485;PMS5003;60509;47.308;-122.428;2022-10-31T11:34:34;4913;4913;
72485;PMS5003;60509;47.308;-122.428;2022-10-31T11:37:00;4960;4960;
72485;PMS5003;60509;47.308;-122.428;2022-10-31T11:39:23;4968;4968;
72485;PMS5003;60509;47.308;-122.428;2022-10-31T11:41:48;4976;4976;
72485;PMS5003;60509;47.308;-122.428;2022-10-31T11:44:14;4960;4960;
72485;PMS5003;60509;47.308;-122.428;2022-10-31T11:46:39;4976;4976;
72485;PMS5003;60509;47.308;-122.428;2022-10-31T11:49:04;4976;4976;
72485;PMS5003;60509;47.308;-122.428;2022-10-31T11:51:30;4968;4968;
72485;PMS5003;60509;47.308;-122.428;2022-10-31T11:53:55;4960;4960;
72485;PMS5003;60509;47.308;-122.428;2022-10-31T11:56:20;4960;4960;
72485;PMS5003;60509;47.308;-122.428;2022-10-31T11:58:54;4960;4960;
72485;PMS5003;60509;47.308;-122.428;2022-10-31T12:01:21;4968;4968;
72485;PMS5003;60509;47.308;-122.428;2022-10-31T12:03:40;4968;4968;
72485;PMS5003;60509;47.308;-122.428;2022-10-31T12:06:02;4968;4968;
72485;PMS5003;60509;47.308;-122.428;2022-10-31T12:08:28;4968;4968;
72485;PMS5003;60509;47.308;-122.428;2022-10-31T12:10:53;4960;4960;
72485;PMS5003;60509;47.308;-122.428;2022-10-31T12:13:21;4960;4960;
72485;PMS5003;60509;47.308;-122.428;2022-10-31T12:15:43;4968;4968;
72485;PMS5003;60509;47.308;-122.428;2022-10-31T12:18:16;4976;4976;
72485;PMS5003;60509;47.308;-122.428;2022-10-31T12:20:35;4976;4976;
72485;PMS5003;60509;47.308;-122.428;2022-10-31T12:23:00;4976;4976;
72485;PMS5003;60509;47.308;-122.428;2022-10-31T12:25:26;4944;4944;
72485;PMS5003;60509;47.308;-122.428;2022-10-31T12:27:55;4944;4944;
72485;PMS5003;60509;47.308;-122.428;2022-10-31T12:30:17;4929;4929;
72485;PMS5003;60509;47.308;-122.428;2022-10-31T12:32:41;4936;4936;
72485;PMS5003;60509;47.308;-122.428;2022-10-31T12:35:08;4929;4929;
72485;PMS5003;60509;47.308;-122.428;2022-10-31T12:37:41;4913;4913;
72485;PMS5003;60509;47.308;-122.428;2022-10-31T12:39:57;4921;4921;
72485;PMS5003;60509;47.308;-122.428;2022-10-31T12:42:22;4929;4929;
72485;PMS5003;60509;47.308;-122.428;2022-10-31T12:44:51;4913;4913;
72485;PMS5003;60509;47.308;-122.428;2022-10-31T12:47:18;4913;4913;
72485;PMS5003;60509;47.308;-122.428;2022-10-31T12:49:40;4882;4882;
72485;PMS5003;60509;47.308;-122.428;2022-10-31T12:52:05;4929;4929;
72485;PMS5003;60509;47.308;-122.428;2022-10-31T12:54:31;4929;4929;
72485;PMS5003;60509;47.308;-122.428;2022-10-31T12:56:54;4929;4929;
72485;PMS5003;60509;47.308;-122.428;2022-10-31T12:59:20;4929;4929;
72485;PMS5003;60509;47.308;-122.428;2022-10-31T13:01:45;4905;4905;
72485;PMS5003;60509;47.308;-122.428;2022-10-31T13:04:11;4913;4913;
72485;PMS5003;60509;47.308;-122.428;2022-10-31T13:06:34;4860;4860;
72485;PMS5003;60509;47.308;-122.428;2022-10-31T13:08:59;4929;4929;
72485;PMS5003;60509;47.308;-122.428;2022-10-31T13:11:25;4905;4905;
72485;PMS5003;60509;47.308;-122.428;2022-10-31T13:13:52;4913;4913;
72485;PMS5003;60509;47.308;-122.428;2022-10-31T13:16:15;4913;4913;
72485;PMS5003;60509;47.308;-122.428;2022-10-31T13:18:43;4890;4890;
72485;PMS5003;60509;47.308;-122.428;2022-10-31T13:21:08;4913;4913;
72485;PMS5003;60509;47.308;-122.428;2022-10-31T13:23:32;4913;4913;
72485;PMS5003;60509;47.308;-122.428;2022-10-31T13:25:56;4898;4898;
72485;PMS5003;60509;47.308;-122.428;2022-10-31T13:28:24;4898;4898;
72485;PMS5003;60509;47.308;-122.428;2022-10-31T13:30:47;4898;4898;
72485;PMS5003;60509;47.308;-122.428;2022-10-31T13:33:13;4898;4898;
72485;PMS5003;60509;47.308;-122.428;2022-10-31T13:35:38;4882;4882;
72485;PMS5003;60509;47.308;-122.428;2022-10-31T13:38:05;4875;4875;
72485;PMS5003;60509;47.308;-122.428;2022-10-31T13:40:32;4898;4898;
72485;PMS5003;60509;47.308;-122.428;2022-10-31T13:42:55;4905;4905;
72485;PMS5003;60509;47.308;-122.428;2022-10-31T13:45:19;4890;4890;
72485;PMS5003;60509;47.308;-122.428;2022-10-31T13:47:54;4913;4913;
72485;PMS5003;60509;47.308;-122.428;2022-10-31T13:50:25;4905;4905;
72485;PMS5003;60509;47.308;-122.428;2022-10-31T13:52:34;4882;4882;
72485;PMS5003;60509;47.308;-122.428;2022-10-31T13:55:00;4913;4913;
72485;PMS5003;60509;47.308;-122.428;2022-10-31T13:57:28;4905;4905;
72485;PMS5003;60509;47.308;-122.428;2022-10-31T13:59:51;4905;4905;
72485;PMS5003;60509;47.308;-122.428;2022-10-31T14:02:16;4890;4890;
72485;PMS5003;60509;47.308;-122.428;2022-10-31T14:04:44;4860;4860;
72485;PMS5003;60509;47.308;-122.428;2022-10-31T14:07:07;4890;4890;
72485;PMS5003;60509;47.308;-122.428;2022-10-31T14:09:33;4913;4913;
72485;PMS5003;60509;47.308;-122.428;2022-10-31T14:11:58;4882;4882;
72485;PMS5003;60509;47.308;-122.428;2022-10-31T14:14:23;4898;4898;
72485;PMS5003;60509;47.308;-122.428;2022-10-31T14:16:52;4905;4905;
72485;PMS5003;60509;47.308;-122.428;2022-10-31T14:19:15;4898;4898;
72485;PMS5003;60509;47.308;-122.428;2022-10-31T14:21:39;4898;4898;
72485;PMS5003;60509;47.308;-122.428;2022-10-31T14:24:12;4890;4890;